createdAt,value
2019-05-19T00:01:08.364Z,11.22
2019-05-19T00:03:36.662Z,13.70
2019-05-19T00:06:05.225Z,12.63
2019-05-19T00:08:33.524Z,11.80
2019-05-19T00:11:01.858Z,12.10
2019-05-19T00:13:30.169Z,12.03
2019-05-19T00:15:58.512Z,12.82
2019-05-19T00:18:26.806Z,11.57
2019-05-19T00:20:55.096Z,10.80
2019-05-19T00:23:23.394Z,10.78
2019-05-19T00:25:51.685Z,11.57
2019-05-19T00:28:19.978Z,11.73
2019-05-19T00:30:48.287Z,10.95
2019-05-19T00:33:16.576Z,11.15
2019-05-19T00:35:45.113Z,10.55
2019-05-19T00:38:13.456Z,10.55
2019-05-19T00:40:41.765Z,10.20
2019-05-19T00:43:10.055Z,10.58
2019-05-19T00:45:38.352Z,10.55
2019-05-19T00:48:06.715Z,10.60
2019-05-19T00:50:35.009Z,10.13
2019-05-19T00:53:03.294Z,10.95
2019-05-19T00:55:32.432Z,12.30
2019-05-19T00:58:02.045Z,10.75
2019-05-19T01:00:30.705Z,10.23
2019-05-19T01:02:58.986Z,10.93
2019-05-19T01:05:27.343Z,10.35
2019-05-19T01:07:55.797Z,11.38
2019-05-19T01:10:24.170Z,10.95
2019-05-19T01:12:52.457Z,11.25
2019-05-19T01:15:20.866Z,13.65
2019-05-19T01:17:49.128Z,14.10
2019-05-19T01:20:17.801Z,14.18
2019-05-19T01:22:46.129Z,15.65
2019-05-19T01:25:14.770Z,14.45
2019-05-19T01:27:43.069Z,14.40
2019-05-19T01:30:12.205Z,16.87
2019-05-19T01:32:40.505Z,14.65
2019-05-19T01:35:08.865Z,15.25
2019-05-19T01:37:37.149Z,13.15
2019-05-19T01:40:08.488Z,13.15
2019-05-19T01:42:36.944Z,13.62
2019-05-19T01:45:08.293Z,12.70
2019-05-19T01:47:36.585Z,12.80
2019-05-19T01:50:17.593Z,13.25
2019-05-19T01:52:38.156Z,12.13
2019-05-19T01:55:06.534Z,13.30
2019-05-19T01:57:34.823Z,14.98
2019-05-19T02:00:04.474Z,16.32
2019-05-19T02:02:32.755Z,16.57
2019-05-19T02:05:01.060Z,17.10
2019-05-19T02:07:29.358Z,17.10
2019-05-19T02:09:57.816Z,17.77
2019-05-19T02:12:26.123Z,17.30
2019-05-19T02:14:54.414Z,16.20
2019-05-19T02:17:22.723Z,17.35
2019-05-19T02:19:51.009Z,17.05
2019-05-19T02:22:19.315Z,15.75
2019-05-19T02:24:47.603Z,17.95
2019-05-19T02:27:15.937Z,17.00
2019-05-19T02:29:44.196Z,16.57
2019-05-19T02:32:12.511Z,18.12
2019-05-19T02:34:40.801Z,17.25
2019-05-19T02:37:09.104Z,17.73
2019-05-19T02:39:37.384Z,16.15
2019-05-19T02:42:05.686Z,16.10
2019-05-19T02:44:35.437Z,16.87
2019-05-19T02:47:04.241Z,17.07
2019-05-19T02:49:33.188Z,17.17
2019-05-19T02:52:03.398Z,18.57
2019-05-19T02:54:32.826Z,19.05
2019-05-19T02:57:02.762Z,17.02
2019-05-19T02:59:32.078Z,18.30
2019-05-19T03:02:02.046Z,18.73
2019-05-19T03:04:30.316Z,18.67
2019-05-19T03:06:58.621Z,17.32
2019-05-19T03:09:26.998Z,19.37
2019-05-19T03:11:55.281Z,18.77
2019-05-19T03:14:23.582Z,19.48
2019-05-19T03:16:51.973Z,20.12
2019-05-19T03:19:20.441Z,19.87
2019-05-19T03:21:48.735Z,17.73
2019-05-19T03:24:17.465Z,17.92
2019-05-19T03:26:45.781Z,18.27
2019-05-19T03:29:15.721Z,19.00
2019-05-19T03:31:48.345Z,18.23
2019-05-19T03:34:17.105Z,20.05
2019-05-19T03:36:45.476Z,18.80
2019-05-19T03:39:13.717Z,18.95
2019-05-19T03:41:42.043Z,19.92
2019-05-19T03:44:10.328Z,19.25
2019-05-19T03:46:38.622Z,20.80
2019-05-19T03:49:06.912Z,18.40
2019-05-19T03:51:35.221Z,19.90
2019-05-19T03:54:03.512Z,19.37
2019-05-19T03:56:31.847Z,20.92
2019-05-19T03:59:00.151Z,18.90
2019-05-19T04:01:28.455Z,19.30
2019-05-19T04:03:56.764Z,18.98
2019-05-19T04:06:25.057Z,19.25
2019-05-19T04:08:53.399Z,17.90
2019-05-19T04:11:21.659Z,18.50
2019-05-19T04:13:49.975Z,18.82
2019-05-19T04:16:18.270Z,20.25
2019-05-19T04:18:46.583Z,20.92
2019-05-19T04:21:14.883Z,19.95
2019-05-19T04:23:43.189Z,21.07
2019-05-19T04:26:11.485Z,20.05
2019-05-19T04:28:39.776Z,20.50
2019-05-19T04:31:08.070Z,20.40
2019-05-19T04:33:36.391Z,21.42
2019-05-19T04:36:04.719Z,21.33
2019-05-19T04:38:33.058Z,19.82
2019-05-19T04:41:01.349Z,18.80
2019-05-19T04:43:29.656Z,19.85
2019-05-19T04:45:57.949Z,19.67
2019-05-19T04:48:26.249Z,19.73
2019-05-19T04:50:54.527Z,19.92
2019-05-19T04:53:22.845Z,19.98
2019-05-19T04:55:51.116Z,20.40
2019-05-19T04:58:19.438Z,19.75
2019-05-19T05:00:47.728Z,19.17
2019-05-19T05:03:16.047Z,19.42
2019-05-19T05:05:44.339Z,20.17
2019-05-19T05:08:27.855Z,19.77
2019-05-19T05:10:42.658Z,20.95
2019-05-19T05:13:10.970Z,20.00
2019-05-19T05:15:39.269Z,19.57
2019-05-19T05:18:07.597Z,19.20
2019-05-19T05:20:35.897Z,17.80
2019-05-19T05:23:04.196Z,19.02
2019-05-19T05:25:32.479Z,18.42
2019-05-19T05:28:01.064Z,19.62
2019-05-19T05:30:29.707Z,20.80
2019-05-19T05:32:58.081Z,20.45
2019-05-19T05:35:26.383Z,20.82
2019-05-19T05:37:54.703Z,20.45
2019-05-19T05:40:23.010Z,22.27
2019-05-19T05:42:51.312Z,20.95
2019-05-19T05:45:19.911Z,22.32
2019-05-19T05:47:48.473Z,21.48
2019-05-19T05:50:16.759Z,20.88
2019-05-19T05:52:45.067Z,19.00
2019-05-19T05:55:13.358Z,21.25
2019-05-19T05:57:41.656Z,20.60
2019-05-19T06:00:10.311Z,20.17
2019-05-19T06:02:38.608Z,18.50
2019-05-19T06:05:07.069Z,17.15
2019-05-19T06:07:35.370Z,15.15
2019-05-19T06:10:04.626Z,16.60
2019-05-19T06:12:32.926Z,15.83
2019-05-19T06:15:01.495Z,14.63
2019-05-19T06:17:29.767Z,14.90
2019-05-19T06:19:58.349Z,13.72
2019-05-19T06:22:26.638Z,14.38
2019-05-19T06:24:54.943Z,15.98
2019-05-19T06:27:23.230Z,14.60
2019-05-19T06:29:51.544Z,14.65
2019-05-19T06:32:24.458Z,13.80
2019-05-19T06:34:52.784Z,14.45
2019-05-19T06:37:21.078Z,13.50
2019-05-19T06:39:49.415Z,14.30
2019-05-19T06:42:17.700Z,13.50
2019-05-19T06:44:46.006Z,13.80
2019-05-19T06:47:14.286Z,13.03
2019-05-19T06:49:42.582Z,13.48
2019-05-19T06:52:10.883Z,12.43
2019-05-19T06:54:39.224Z,13.03
2019-05-19T06:57:07.855Z,13.80
2019-05-19T06:59:36.154Z,12.93
2019-05-19T07:02:04.531Z,12.28
2019-05-19T07:04:32.810Z,13.35
2019-05-19T07:07:01.336Z,13.60
2019-05-19T07:09:30.533Z,13.13
2019-05-19T07:11:58.860Z,12.82
2019-05-19T07:14:27.192Z,10.95
2019-05-19T07:16:55.475Z,12.60
2019-05-19T07:19:23.776Z,11.38
2019-05-19T07:21:52.058Z,11.33
2019-05-19T07:24:20.359Z,12.98
2019-05-19T07:26:49.080Z,11.97
2019-05-19T07:29:17.433Z,11.45
2019-05-19T07:31:46.006Z,11.00
2019-05-19T07:34:14.320Z,11.10
2019-05-19T07:36:42.609Z,10.63
2019-05-19T07:39:10.920Z,11.38
2019-05-19T07:41:39.207Z,11.75
2019-05-19T07:44:07.509Z,10.63
2019-05-19T07:46:35.793Z,11.43
2019-05-19T07:49:04.117Z,10.65
2019-05-19T07:51:32.393Z,10.50
2019-05-19T07:54:00.693Z,11.03
2019-05-19T07:56:28.984Z,10.53
2019-05-19T07:58:57.275Z,10.95
2019-05-19T08:01:25.569Z,10.95
2019-05-19T08:03:53.851Z,9.98
2019-05-19T08:06:22.177Z,10.28
2019-05-19T08:08:50.901Z,10.30
2019-05-19T08:11:19.190Z,9.85
2019-05-19T08:13:47.768Z,8.98
2019-05-19T08:16:16.069Z,9.63
2019-05-19T08:18:44.340Z,9.18
2019-05-19T08:21:12.641Z,8.35
2019-05-19T08:23:40.960Z,8.73
2019-05-19T08:26:09.256Z,8.60
2019-05-19T08:28:37.526Z,8.13
2019-05-19T08:31:06.087Z,7.70
2019-05-19T08:33:34.717Z,7.45
2019-05-19T08:36:03.015Z,7.12
2019-05-19T08:38:31.295Z,7.25
2019-05-19T08:40:59.654Z,6.80
2019-05-19T08:43:27.961Z,7.03
2019-05-19T08:45:56.273Z,7.58
2019-05-19T08:48:24.566Z,8.28
2019-05-19T08:50:52.866Z,7.40
2019-05-19T08:53:21.147Z,7.83
2019-05-19T08:55:49.442Z,7.92
2019-05-19T08:58:17.729Z,7.08
2019-05-19T09:00:46.285Z,7.70
2019-05-19T09:03:17.531Z,8.73
2019-05-19T09:05:47.882Z,7.72
2019-05-19T09:08:15.859Z,8.28
2019-05-19T09:10:44.626Z,9.05
2019-05-19T09:13:12.914Z,9.10
2019-05-19T09:15:41.486Z,7.90
2019-05-19T09:18:09.762Z,8.03
2019-05-19T09:20:38.070Z,8.53
2019-05-19T09:23:06.628Z,9.23
2019-05-19T09:25:34.914Z,9.48
2019-05-19T09:28:03.879Z,8.90
2019-05-19T09:30:32.131Z,8.80
2019-05-19T09:33:00.438Z,9.43
2019-05-19T09:35:28.712Z,9.15
2019-05-19T09:37:57.007Z,8.95
2019-05-19T09:40:26.722Z,10.15
2019-05-19T09:42:55.269Z,10.15
2019-05-19T09:45:23.542Z,11.25
2019-05-19T09:47:51.854Z,10.43
2019-05-19T09:50:20.135Z,10.18
2019-05-19T09:52:48.434Z,11.30
2019-05-19T09:55:16.724Z,11.20
2019-05-19T09:57:45.028Z,9.83
2019-05-19T10:00:13.379Z,11.80
2019-05-19T10:02:41.682Z,13.53
2019-05-19T10:05:10.096Z,12.63
2019-05-19T10:07:38.398Z,12.37
2019-05-19T10:10:20.178Z,11.70
2019-05-19T10:12:48.469Z,10.88
2019-05-19T10:15:16.814Z,10.72
2019-05-19T10:17:45.123Z,11.55
2019-05-19T10:20:13.884Z,10.75
2019-05-19T10:22:42.184Z,10.38
2019-05-19T10:25:21.677Z,10.93
2019-05-19T10:27:40.787Z,11.70
2019-05-19T10:30:09.974Z,11.08
2019-05-19T10:32:38.373Z,13.62
2019-05-19T10:35:06.743Z,11.85
2019-05-19T10:37:35.051Z,11.93
2019-05-19T10:40:04.600Z,12.20
2019-05-19T10:42:32.905Z,12.45
2019-05-19T10:45:01.528Z,11.12
2019-05-19T10:47:29.812Z,12.35
2019-05-19T10:49:58.100Z,10.32
2019-05-19T10:52:26.414Z,10.72
2019-05-19T10:54:54.693Z,10.85
2019-05-19T10:57:23.038Z,10.13
2019-05-19T10:59:51.291Z,10.45
2019-05-19T11:02:19.575Z,10.88
2019-05-19T11:04:47.880Z,10.23
2019-05-19T11:07:16.181Z,10.38
2019-05-19T11:09:44.449Z,9.65
2019-05-19T11:12:12.724Z,8.80
2019-05-19T11:14:41.019Z,9.40
2019-05-19T11:17:09.343Z,8.95
2019-05-19T11:19:37.589Z,9.90
2019-05-19T11:22:05.876Z,9.60
2019-05-19T11:24:34.500Z,10.58
2019-05-19T11:27:02.779Z,8.98
2019-05-19T11:29:31.098Z,9.55
2019-05-19T11:31:59.637Z,10.38
2019-05-19T11:34:27.919Z,11.55
2019-05-19T11:36:56.260Z,10.38
2019-05-19T11:39:24.626Z,10.03
2019-05-19T11:41:52.850Z,9.95
2019-05-19T11:44:21.158Z,9.88
2019-05-19T11:46:49.727Z,9.70
2019-05-19T11:49:18.037Z,9.35
2019-05-19T11:51:46.339Z,10.50
2019-05-19T11:54:14.965Z,9.60
2019-05-19T11:56:43.246Z,9.35
2019-05-19T11:59:11.549Z,9.70
2019-05-19T12:01:39.838Z,10.40
2019-05-19T12:04:08.136Z,9.30
2019-05-19T12:06:39.811Z,8.60
2019-05-19T12:09:07.049Z,8.80
2019-05-19T12:11:35.330Z,9.00
2019-05-19T12:14:03.624Z,9.25
2019-05-19T12:16:31.900Z,7.70
2019-05-19T12:19:00.197Z,7.97
2019-05-19T12:21:28.785Z,7.83
2019-05-19T12:23:57.079Z,7.85
2019-05-19T12:26:25.386Z,7.50
2019-05-19T12:28:53.862Z,7.47
2019-05-19T12:31:22.128Z,7.70
2019-05-19T12:33:52.233Z,7.33
2019-05-19T12:36:20.794Z,7.60
2019-05-19T12:38:49.068Z,7.17
2019-05-19T12:41:17.368Z,7.40
2019-05-19T12:43:45.675Z,6.80
2019-05-19T12:46:16.720Z,6.58
2019-05-19T12:48:43.974Z,6.28
2019-05-19T12:51:12.268Z,6.87
2019-05-19T12:53:40.565Z,6.78
2019-05-19T12:56:08.860Z,7.40
2019-05-19T12:58:37.195Z,7.90
2019-05-19T13:01:05.496Z,7.87
2019-05-19T13:03:33.831Z,8.15
2019-05-19T13:06:02.075Z,8.50
2019-05-19T13:08:30.363Z,7.85
2019-05-19T13:10:58.653Z,9.30
2019-05-19T13:13:26.938Z,9.08
2019-05-19T13:15:55.371Z,9.70
2019-05-19T13:18:23.664Z,9.00
2019-05-19T13:20:51.949Z,8.98
2019-05-19T13:23:20.222Z,9.00
2019-05-19T13:25:48.522Z,9.63
2019-05-19T13:28:16.795Z,9.33
2019-05-19T13:30:45.088Z,9.15
2019-05-19T13:33:13.389Z,9.60
2019-05-19T13:35:41.726Z,10.40
2019-05-19T13:38:10.244Z,8.58
2019-05-19T13:40:38.542Z,9.50
2019-05-19T13:43:06.850Z,9.48
2019-05-19T13:45:35.125Z,9.25
2019-05-19T13:48:03.595Z,8.88
2019-05-19T13:50:31.872Z,9.43
2019-05-19T13:53:00.148Z,9.15
2019-05-19T13:55:28.466Z,8.00
2019-05-19T13:57:56.752Z,8.50
2019-05-19T14:00:25.126Z,10.78
2019-05-19T14:02:53.407Z,8.98
2019-05-19T14:05:21.707Z,8.23
2019-05-19T14:07:49.978Z,8.53
2019-05-19T14:10:18.263Z,8.75
2019-05-19T14:12:46.547Z,8.50
2019-05-19T14:15:15.349Z,7.87
2019-05-19T14:17:43.652Z,8.00
2019-05-19T14:20:12.008Z,8.48
2019-05-19T14:22:40.442Z,8.80
2019-05-19T14:25:09.073Z,8.20
2019-05-19T14:27:37.365Z,7.65
2019-05-19T14:30:07.252Z,7.28
2019-05-19T14:32:35.547Z,7.33
2019-05-19T14:35:05.162Z,8.48
2019-05-19T14:37:33.474Z,6.95
2019-05-19T14:40:01.780Z,7.28
2019-05-19T14:42:47.889Z,7.10
2019-05-19T14:45:16.508Z,7.37
2019-05-19T14:47:44.904Z,7.53
2019-05-19T14:50:13.273Z,8.13
2019-05-19T14:52:41.574Z,7.53
2019-05-19T14:55:10.013Z,7.12
2019-05-19T14:57:44.818Z,6.92
2019-05-19T15:00:08.957Z,7.65
2019-05-19T15:02:37.265Z,7.40
2019-05-19T15:05:06.602Z,7.65
2019-05-19T15:07:34.896Z,7.03
2019-05-19T15:10:03.550Z,7.12
2019-05-19T15:12:31.842Z,7.30
2019-05-19T15:15:00.130Z,6.70
2019-05-19T15:17:28.441Z,7.87
2019-05-19T15:19:56.724Z,7.58
2019-05-19T15:22:25.031Z,6.85
2019-05-19T15:24:53.423Z,6.90
2019-05-19T15:27:21.708Z,7.35
2019-05-19T15:29:50.004Z,7.37
2019-05-19T15:32:18.392Z,7.30
2019-05-19T15:34:46.690Z,8.13
2019-05-19T15:37:14.987Z,8.00
2019-05-19T15:39:43.276Z,7.40
2019-05-19T15:42:11.570Z,8.28
2019-05-19T15:44:39.857Z,7.80
2019-05-19T15:47:08.181Z,8.08
2019-05-19T15:49:36.530Z,7.92
2019-05-19T15:52:05.984Z,8.13
2019-05-19T15:54:34.786Z,7.60
2019-05-19T15:57:03.112Z,8.05
2019-05-19T15:59:31.440Z,8.58
2019-05-19T16:01:59.746Z,8.98
2019-05-19T16:04:28.091Z,8.83
2019-05-19T16:06:56.478Z,8.60
2019-05-19T16:09:24.957Z,8.00
2019-05-19T16:11:53.520Z,8.30
2019-05-19T16:14:21.827Z,10.82
2019-05-19T16:16:50.184Z,9.15
2019-05-19T16:19:18.552Z,8.70
2019-05-19T16:21:46.829Z,8.85
2019-05-19T16:24:15.128Z,7.87
2019-05-19T16:26:43.414Z,7.78
2019-05-19T16:29:11.726Z,7.60
2019-05-19T16:31:39.996Z,7.72
2019-05-19T16:34:08.299Z,7.62
2019-05-19T16:36:36.921Z,7.65
2019-05-19T16:39:07.455Z,8.23
2019-05-19T16:41:35.755Z,10.43
2019-05-19T16:44:04.133Z,8.05
2019-05-19T16:46:32.692Z,8.68
2019-05-19T16:49:00.982Z,8.95
2019-05-19T16:51:29.540Z,7.87
2019-05-19T16:53:59.477Z,8.20
2019-05-19T16:56:27.744Z,7.50
2019-05-19T16:58:56.116Z,7.45
2019-05-19T17:01:24.721Z,9.05
2019-05-19T17:03:53.016Z,8.13
2019-05-19T17:06:21.296Z,7.17
2019-05-19T17:08:49.588Z,7.50
2019-05-19T17:11:18.712Z,7.20
2019-05-19T17:13:47.123Z,6.47
2019-05-19T17:16:15.408Z,7.22
2019-05-19T17:18:43.703Z,7.53
2019-05-19T17:21:12.169Z,6.65
2019-05-19T17:23:40.468Z,7.08
2019-05-19T17:26:08.754Z,6.37
2019-05-19T17:28:37.047Z,5.30
2019-05-19T17:31:07.599Z,5.72
2019-05-19T17:33:35.380Z,4.92
2019-05-19T17:36:03.677Z,5.08
2019-05-19T17:38:31.972Z,4.15
2019-05-19T17:41:00.236Z,4.03
2019-05-19T17:43:28.505Z,4.05
2019-05-19T17:45:56.946Z,5.53
2019-05-19T17:48:26.738Z,3.85
2019-05-19T17:50:55.272Z,6.40
2019-05-19T17:53:23.560Z,4.72
2019-05-19T17:55:53.227Z,4.15
2019-05-19T17:58:21.503Z,5.10
2019-05-19T18:00:49.806Z,6.33
2019-05-19T18:03:18.072Z,4.33
2019-05-19T18:05:46.378Z,4.40
2019-05-19T18:08:14.665Z,4.58
2019-05-19T18:10:42.962Z,4.25
2019-05-19T18:13:11.230Z,4.75
2019-05-19T18:15:39.520Z,4.17
2019-05-19T18:18:07.809Z,4.53
2019-05-19T18:20:36.104Z,4.15
2019-05-19T18:23:04.374Z,4.12
2019-05-19T18:25:33.080Z,3.98
2019-05-19T18:28:01.419Z,4.75
2019-05-19T18:30:29.712Z,4.42
2019-05-19T18:32:58.300Z,4.55
2019-05-19T18:35:26.599Z,5.20
2019-05-19T18:37:54.896Z,6.15
2019-05-19T18:40:23.207Z,4.90
2019-05-19T18:42:51.494Z,6.75
2019-05-19T18:45:19.787Z,4.90
2019-05-19T18:47:48.069Z,4.42
2019-05-19T18:50:16.541Z,4.78
2019-05-19T18:52:44.831Z,5.30
2019-05-19T18:55:13.433Z,5.78
2019-05-19T18:57:41.695Z,5.85
2019-05-19T19:00:11.686Z,5.05
2019-05-19T19:02:40.456Z,4.87
2019-05-19T19:05:08.717Z,6.37
2019-05-19T19:07:50.558Z,10.18
2019-05-19T19:10:19.326Z,9.33
2019-05-19T19:12:48.081Z,9.18
2019-05-19T19:15:16.373Z,12.40
2019-05-19T19:17:44.673Z,10.98
2019-05-19T19:20:13.429Z,10.55
2019-05-19T19:22:41.754Z,10.55
2019-05-19T19:25:10.017Z,12.45
2019-05-19T19:27:38.326Z,11.53
2019-05-19T19:30:09.695Z,15.63
2019-05-19T19:32:38.010Z,12.03
2019-05-19T19:35:07.535Z,12.37
2019-05-19T19:37:35.877Z,14.83
2019-05-19T19:40:05.918Z,12.85
2019-05-19T19:42:34.221Z,14.28
2019-05-19T19:45:02.620Z,14.25
2019-05-19T19:47:30.926Z,13.15
2019-05-19T19:49:59.210Z,14.18
2019-05-19T19:52:27.751Z,13.62
2019-05-19T19:54:56.042Z,15.88
2019-05-19T19:57:24.654Z,12.85
2019-05-19T19:59:52.937Z,16.95
2019-05-19T20:02:21.242Z,14.60
2019-05-19T20:04:49.524Z,14.23
2019-05-19T20:07:18.336Z,15.32
2019-05-19T20:09:46.618Z,14.15
2019-05-19T20:12:14.922Z,14.43
2019-05-19T20:14:43.207Z,13.55
2019-05-19T20:17:11.516Z,15.25
2019-05-19T20:19:39.804Z,15.78
2019-05-19T20:22:08.361Z,17.60
2019-05-19T20:24:36.651Z,18.10
2019-05-19T20:27:04.948Z,14.58
2019-05-19T20:29:33.234Z,16.82
2019-05-19T20:32:01.532Z,13.90
2019-05-19T20:34:29.820Z,15.05
2019-05-19T20:36:58.122Z,15.40
2019-05-19T20:39:26.405Z,13.80
2019-05-19T20:41:54.712Z,13.58
2019-05-19T20:44:23.019Z,15.40
2019-05-19T20:46:51.320Z,15.45
2019-05-19T20:49:19.603Z,16.85
2019-05-19T20:51:47.919Z,14.20
2019-05-19T20:54:16.204Z,14.58
2019-05-19T20:56:44.771Z,15.25
2019-05-19T20:59:13.057Z,15.10
2019-05-19T21:01:41.344Z,15.15
2019-05-19T21:04:09.648Z,15.58
2019-05-19T21:06:37.925Z,17.07
2019-05-19T21:09:06.406Z,17.23
2019-05-19T21:11:34.959Z,15.70
2019-05-19T21:14:03.253Z,18.15
2019-05-19T21:16:31.537Z,14.60
2019-05-19T21:18:59.837Z,15.13
2019-05-19T21:21:28.126Z,16.32
2019-05-19T21:23:56.490Z,16.82
2019-05-19T21:26:25.035Z,16.15
2019-05-19T21:28:53.352Z,15.93
2019-05-19T21:31:21.628Z,16.10
2019-05-19T21:33:49.935Z,14.47
2019-05-19T21:36:18.214Z,16.67
2019-05-19T21:38:46.515Z,16.80
2019-05-19T21:41:14.796Z,16.67
2019-05-19T21:43:43.395Z,14.68
2019-05-19T21:46:11.704Z,15.90
2019-05-19T21:48:40.003Z,16.42
2019-05-19T21:51:08.468Z,16.70
2019-05-19T21:53:36.760Z,16.35
2019-05-19T21:56:05.111Z,17.07
2019-05-19T21:58:33.405Z,16.10
2019-05-19T22:01:01.685Z,14.03
2019-05-19T22:03:29.985Z,17.10
2019-05-19T22:05:58.279Z,17.15
2019-05-19T22:08:26.584Z,17.67
2019-05-19T22:10:54.882Z,17.05
2019-05-19T22:13:23.171Z,17.87
2019-05-19T22:15:51.472Z,14.95
2019-05-19T22:18:19.749Z,17.75
2019-05-19T22:20:48.060Z,19.57
2019-05-19T22:23:16.356Z,16.97
2019-05-19T22:25:44.665Z,17.95
2019-05-19T22:28:12.942Z,17.75
2019-05-19T22:30:41.251Z,17.80
2019-05-19T22:33:09.531Z,17.80
2019-05-19T22:35:37.852Z,20.68
2019-05-19T22:38:09.349Z,19.55
2019-05-19T22:40:36.238Z,19.90
2019-05-19T22:43:04.853Z,19.37
2019-05-19T22:45:33.148Z,20.68
2019-05-19T22:48:01.432Z,19.37
2019-05-19T22:50:29.735Z,19.55
2019-05-19T22:52:58.024Z,20.45
2019-05-19T22:55:26.338Z,19.75
2019-05-19T22:57:54.631Z,19.27
2019-05-19T23:00:23.340Z,20.45
2019-05-19T23:02:51.640Z,24.23
2019-05-19T23:05:20.619Z,21.37
2019-05-19T23:07:48.893Z,21.93
2019-05-19T23:10:17.625Z,22.50
2019-05-19T23:12:45.922Z,22.58
2019-05-19T23:15:15.003Z,23.52
2019-05-19T23:17:43.291Z,22.02
2019-05-19T23:20:12.342Z,23.57
2019-05-19T23:22:40.886Z,28.12
2019-05-19T23:25:09.265Z,21.68
2019-05-19T23:27:37.549Z,24.43
2019-05-19T23:30:07.390Z,25.17
2019-05-19T23:32:35.956Z,27.67
2019-05-19T23:35:06.600Z,23.92
2019-05-19T23:37:34.881Z,25.45
2019-05-19T23:40:04.823Z,24.30
2019-05-19T23:42:33.128Z,22.27
2019-05-19T23:45:01.443Z,27.27
2019-05-19T23:47:29.705Z,26.00
2019-05-19T23:49:58.023Z,27.52
2019-05-19T23:52:26.302Z,26.07
2019-05-19T23:54:54.608Z,29.07
2019-05-19T23:57:22.888Z,28.70
2019-05-19T23:59:51.189Z,30.95
